CYYF

Penticton Airport

Penticton, , Canada
METAR CYYF 221800Z 18016KT 15SM FEW045 OVC065 01/M04 A3029 RMK SC1SC7 SLP275
Observed Flight Rules
Jan-22 @ 18:00 UTC (50 minutes ago) Visual Flight Rules
Wind Visibility Clouds
180° at 16 knots 15 miles
  • Few at 4,500' AGL
  • Overcast at 6,500' AGL
Temperatures Readings
Current 1°C / 34°F
Dewpoint -4°C / 25°F
Humidity 70%
Altimeter 30.29" Hg
Pressure 1027.5 hPa
Elevation 344
METAR CYYF 221800Z 18016KT 15SM FEW045 OVC065 01/M04 A3029 RMK SC1SC7 SLP275
Observed Flight Rules
Jan-22 @ 18:00 UTC
(50 minutes ago)
VFR
Wind Visibility
180° at 16 knots 15 miles
Clouds
  • Few at 4,500' AGL
  • Overcast at 6,500' AGL
Temperature Dewpoint
1°C / 34°F -4°C / 25°F
Humidity Altimeter Pressure
70% 30.29" Hg 1027.5 hPa